Flight Track Log - Related Links

Times and Time Zones

All times are in EDT time to prevent confusion due to time zone crossing. See the PAG2 flight status page for this flight to view local times or setup timezone preferences in your user account.

Time Position Orientation Groundspeed Altitude Reporting Facility
EDT Latitude Longitude Course Direction KTS MPH feet Rate Location/Type
Sun 03:30:00 AM 53.2606 -100.5780 145° Southeast  Level Estimated
Sun 03:31:00 AM 53.2049 -100.5135 145° Southeast  Level FlightAware Approximate
Sun 03:32:00 AM 53.1481 -100.4519 156° South  Level Estimated
Sun 03:33:00 AM 53.0913 -100.3904 147° Southeast  Level Estimated
Sun 03:34:00 AM 53.0339 -100.3305 148° Southeast  Level FlightAware Approximate
Sun 03:35:00 AM 52.9765 -100.2707 148° Southeast  Level FlightAware Approximate
Sun 03:35:24 AM 53.1167 -100.4500 148° Southeast 260 299 17,000  Level Winnipeg Center
Sun 03:36:00 AM 52.9191 -100.2110 148° Southeast  Level FlightAware Approximate
Sun 03:36:24 AM 53.0500 -100.3667 143° Southeast 270 311 17,100  Level Winnipeg Center
Sun 03:37:00 AM 52.8616 -100.1515 148° Southeast  Level FlightAware Approximate
Sun 03:37:24 AM 53.0000 -100.3000 141° Southeast 280 322 16,800  Level Winnipeg Center
Sun 03:38:00 AM 52.8041 -100.0922 148° Southeast  Level FlightAware Approximate
Sun 03:38:24 AM 52.9333 -100.2167 143° Southeast 280 322 16,900  Level Winnipeg Center
Sun 03:39:00 AM 52.7466 -100.0330 148° Southeast  Level FlightAware Approximate
Sun 03:39:24 AM 52.8500 -100.1833 166° South 280 322 17,000  Level Winnipeg Center
Sun 03:40:00 AM 52.6890 -99.9740 148° Southeast  Level FlightAware Approximate
Sun 03:40:34 AM 52.7833 -100.1000 143° Southeast 280 322 17,000  Level Winnipeg Center
Sun 03:41:34 AM 52.7167 -100.0000 138° Southeast 280 322 17,000  Level Winnipeg Center
Sun 03:42:34 AM 52.6500 -99.9500 156° South 280 322 17,000  Level Winnipeg Center
Sun 03:43:34 AM 52.5833 -99.8500 138° Southeast 280 322 17,000  Level Winnipeg Center
Sun 03:44:34 AM 52.5167 -99.8000 155° Southeast 280 322 17,000  Level Winnipeg Center
Sun 03:45:34 AM 52.4500 -99.7333 149° Southeast 280 322 17,000  Level Winnipeg Center
Sun 03:46:34 AM 52.4000 -99.6833 149° Southeast 280 322 17,000 50 Level Winnipeg Center
Sun 03:47:34 AM 52.3333 -99.6000 143° Southeast 280 322 17,100  Climbing Winnipeg Center
Sun 03:48:34 AM 52.2667 -99.5333 149° Southeast 280 322 17,000 -50 Descending Winnipeg Center
Sun 03:49:34 AM 52.2000 -99.4500 143° Southeast 280 322 17,000  Level Winnipeg Center
Sun 03:50:34 AM 52.1333 -99.4000 155° Southeast 280 322 17,000  Level Winnipeg Center
Sun 03:51:34 AM 52.0667 -99.3333 148° Southeast 270 311 17,000  Level Winnipeg Center
Sun 03:52:34 AM 52.0000 -99.2833 155° Southeast 270 311 17,000  Level Winnipeg Center
Sun 03:53:34 AM 51.9333 -99.2167 148° Southeast 270 311 17,000  Level Winnipeg Center
Sun 03:54:34 AM 51.8667 -99.1333 142° Southeast 270 311 17,000  Level Winnipeg Center
Sun 03:55:34 AM 51.8167 -99.0833 148° Southeast 270 311 17,000  Level Winnipeg Center
Sun 03:56:34 AM 51.7333 -99.0167 154° Southeast 270 311 17,000  Level Winnipeg Center
Sun 03:57:34 AM 51.6833 -98.9667 148° Southeast 270 311 17,000  Level Winnipeg Center
Sun 03:58:34 AM 51.6167 -98.9000 148° Southeast 270 311 17,000  Level Winnipeg Center
Sun 03:59:34 AM 51.5500 -98.8167 142° Southeast 270 311 17,000  Level Winnipeg Center
Sun 04:00:34 AM 51.4833 -98.7667 155° Southeast 270 311 17,000  Level Winnipeg Center
Sun 04:01:34 AM 51.4167 -98.7167 155° Southeast 270 311 17,000  Level Winnipeg Center
Sun 04:02:34 AM 51.3667 -98.6333 134° Southeast 260 299 17,000 -50 Level Winnipeg Center
Sun 04:03:34 AM 51.3000 -98.5667 148° Southeast 260 299 16,900 -50 Descending Winnipeg Center
Sun 04:04:34 AM 51.2333 -98.5167 155° Southeast 260 299 16,900 -50 Level Winnipeg Center
Sun 04:05:34 AM 51.1667 -98.4667 149° Southeast 260 299 16,800 50 Descending Winnipeg Center
Sun 04:06:00 AM 51.1521 -98.4310 146° Southeast  Level FlightAware Approximate
Sun 04:06:34 AM 51.1333 -98.4000 129° Southeast 260 299 17,000  Level Winnipeg Center
Sun 04:07:34 AM 51.0667 -98.3167 142° Southeast 260 299 17,000  Level Winnipeg Center
Sun 04:08:34 AM 51.0000 -98.2667 155° Southeast 260 299 17,000  Level Winnipeg Center
Sun 04:09:34 AM 50.9333 -98.2167 155° Southeast 260 299 17,000  Level Winnipeg Center
Sun 04:10:34 AM 50.8833 -98.1667 147° Southeast 260 299 17,000 -33 Level Winnipeg Center
Sun 04:11:00 AM 50.8560 -98.1226 148° Southeast  Level FlightAware Approximate
Sun 04:12:34 AM 50.7500 -98.0500 151° Southeast 260 299 16,900  Level Winnipeg Center
Sun 04:13:00 AM 50.7529 -98.0216 149° Southeast  Level FlightAware Approximate
Sun 04:13:34 AM 50.7000 -98.0000 148° Southeast 250 288 17,000  Level Winnipeg Center
Sun 04:14:34 AM 50.6333 -97.9167 142° Southeast 260 299 17,000  Level Winnipeg Center
Sun 04:15:34 AM 50.5667 -97.8667 155° Southeast 250 288 17,000 -200 Level Winnipeg Center
Sun 04:16:34 AM 50.5000 -97.8000 148° Southeast 260 299 16,600 -1,150 Descending Winnipeg Center
Sun 04:17:34 AM 50.4333 -97.7500 154° Southeast 290 334 14,700 -1,950 Descending Winnipeg Center
Sun 04:18:00 AM 50.4499 -97.7332 147° Southeast  Level FlightAware Approximate
Sun 04:18:34 AM 50.3667 -97.6667 141° Southeast 310 357 12,700  Level Winnipeg Center
Sun 04:19:34 AM 50.2833 -97.6167 159° South 300 345 11,000 -1,950 Descending Winnipeg Center
Sun 04:20:34 AM 50.2167 -97.5333 141° Southeast 280 322 8,800 -2,600 Descending Winnipeg Center
Sun 04:21:34 AM 50.1500 -97.4833 154° Southeast 270 311 5,800 -2,300 Descending Winnipeg Center
Sun 04:22:34 AM 50.1000 -97.4333 147° Southeast 240 276 4,200 -1,500 Descending Winnipeg Center
Sun 04:23:34 AM 50.0333 -97.4167 171° South 210 242 2,800 -1,050 Descending Winnipeg Center
Sun 04:24:34 AM 50.0000 -97.3500 128° Southeast 190 219 2,100 -450 Descending Winnipeg Center
Sun 04:25:34 AM 49.9667 -97.3333 162° South 160 184 1,900 -300 Descending Winnipeg Center
Sun 04:26:34 AM 49.9333 -97.2833 136° Southeast 120 138 1,500 -450 Descending Winnipeg Center
Sun 04:27:34 AM 49.9000 -97.2500 147° Southeast 110 127 1,000 -350 Descending Winnipeg Center
Sun 04:28:34 AM 49.8833 -97.2333 147° Southeast 60 69 800 -100 Descending Winnipeg Center
Sun 04:29:34 AM 49.8833 -97.2333 147° Southeast 30 35 800  Level Winnipeg Center

Login

Don't have an account? Register now (free) for customized features, flight alerts, and more!